Alpha, Idaho
Current Conditions -  °F | °C
As of 9:00 AM on Monday 22 Dec 2014 (Local Time) from KMYL Reporting Station
Light Snow Light Snow  
Wind Chill: 30°   Ceiling: 2400
Heat Index: 30°   Visibility: 1.2mi
Dew Point: 29°   Wind: 0mph
Humidity: 96%   Direction: NA
Pressure: 30.03"   Gusts: NA
Location:  44.4236°N, 115.8°W
Report Text: KMYL 221600Z AUTO 00000KT 1 1/4SM -SN BR FEW007 OVC024 M01/M02 A3003 RMK AO2 P0000 T10111017
Loading
Personal Weather Stations






























Interactive Weather Map New forecast layout! Learn more

10-Day Weather Forecast

Advertisements
Track Severe Weather on mobile